Ocean King — CZ2591 — position and weather

sailwx.info

Track history (hours):
 
Tides and Currents Weather Stations Pressure Air Temp Water Temp Dewpoint Dewpoint Depression Visibility Wind Speed Wind Dir Waves Ship Positions

Ocean King

Last reported at 2017-Mar-01 19:29 UTC. Time now 2017-Mar-01 20:16 UTC.
Position N 49°10' W 123°56'.

Length 29 m; draft 4 m.

Type: Fishing. MMSI: 316003514.

Date/timePositionNaut miles runAvg speedWind from/ knotsBaromVisibWave heightAir tempDewpointWater temp
2017-Mar-01 19:29N 49°10' W 123°56'0 0.0
2017-Mar-01 18:28N 49°10' W 123°56'0 0.0
2017-Mar-01 17:33N 49°10' W 123°56'0 0.0
2017-Mar-01 16:31N 49°10' W 123°56'0 0.0
2017-Mar-01 15:33N 49°10' W 123°56'0 0.0
2017-Mar-01 14:33N 49°10' W 123°56'0 0.0
2017-Mar-01 13:33N 49°10' W 123°56'0 0.0
2017-Mar-01 12:31N 49°10' W 123°56'0 0.0
2017-Mar-01 11:31N 49°10' W 123°56'0 0.0
2017-Mar-01 10:27N 49°10' W 123°56'0 0.0
2017-Mar-01 09:31N 49°10' W 123°56'0 0.0
2017-Mar-01 08:32N 49°10' W 123°56'0 0.0
2017-Mar-01 07:33N 49°10' W 123°56'0 0.0
2017-Mar-01 06:30N 49°10' W 123°56'0 0.0
2017-Mar-01 05:31N 49°10' W 123°56'0 0.0
2017-Mar-01 04:33N 49°10' W 123°56'0 0.0
2017-Mar-01 03:33N 49°10' W 123°56'0 0.0
2017-Mar-01 02:33N 49°10' W 123°56'0 0.0
2017-Mar-01 01:28N 49°10' W 123°56'0 0.0
2017-Mar-01 00:32N 49°10' W 123°56'0 0.0
2017-Feb-28 23:33N 49°10' W 123°56'0 0.0
2017-Feb-28 22:31N 49°10' W 123°56'0 0.1
2017-Feb-28 21:33N 49°10' W 123°56'4 3.2
2017-Feb-28 20:22N 49°12' W 123°51'7 8.6
2017-Feb-28 19:32N 49°10' W 123°41'8 8.3
2017-Feb-28 18:33N 49°03' W 123°35'7 6.8
2017-Feb-28 17:32N 48°57' W 123°32'7 7.3
2017-Feb-28 16:33N 48°52' W 123°24'6 6.5
2017-Feb-28 15:33N 48°46' W 123°20'7 7.4
2017-Feb-28 14:33N 48°38' W 123°21'8 8.0
2017-Feb-28 13:33N 48°31' W 123°16'7 7.0
2017-Feb-28 12:33N 48°24' W 123°17'8 8.1
2017-Feb-28 11:33N 48°21' W 123°28'10 9.4
2017-Feb-28 10:33N 48°18' W 123°42'9 9.1
2017-Feb-28 09:33N 48°20' W 123°55'9 8.6
2017-Feb-28 08:33N 48°23' W 124°07'8 8.1
2017-Feb-28 07:33N 48°26' W 124°18'7 7.1
2017-Feb-28 06:33N 48°29' W 124°28'7 6.7
2017-Feb-28 05:33N 48°31' W 124°38'7 6.8
2017-Feb-28 04:33N 48°34' W 124°47'7 7.4
2017-Feb-28 03:33N 48°37' W 124°57'8 7.7
2017-Feb-28 02:33N 48°41' W 125°07'8 8.1
2017-Feb-28 01:33N 48°45' W 125°18'8 8.5
2017-Feb-28 00:33N 48°51' W 125°27'6 6.3
2017-Feb-27 23:33N 48°56' W 125°32'0 0.0
2017-Feb-27 22:33N 48°56' W 125°32'0 0.0
2017-Feb-27 21:33N 48°56' W 125°32'0 0.0
2017-Feb-27 20:33N 48°56' W 125°32'0 0.1
2017-Feb-27 19:33N 48°56' W 125°32'0 0.0
2017-Feb-27 18:34N 48°56' W 125°32'0 0.0
2017-Feb-27 17:33N 48°56' W 125°32'0 0.0
2017-Feb-27 16:33N 48°56' W 125°32'0 0.0
2017-Feb-27 15:34N 48°56' W 125°32'0 0.0
2017-Feb-27 14:33N 48°56' W 125°32'0 0.0
2017-Feb-27 13:33N 48°56' W 125°32'0 0.0
2017-Feb-27 12:33N 48°56' W 125°32'0 0.0
2017-Feb-27 11:33N 48°56' W 125°32'0 0.0
2017-Feb-27 10:33N 48°56' W 125°32'0 0.0
2017-Feb-27 09:33N 48°56' W 125°32'0 0.0
2017-Feb-27 08:33N 48°56' W 125°32'0 0.0
2017-Feb-27 07:34N 48°56' W 125°32'0 0.0
2017-Feb-27 06:33N 48°56' W 125°32'0 0.0
2017-Feb-27 05:33N 48°56' W 125°32'0 0.0
2017-Feb-27 04:33N 48°56' W 125°32'0 0.0
2017-Feb-27 03:34N 48°56' W 125°32'7 6.9
2017-Feb-27 02:33N 48°56' W 125°22'8 8.2
2017-Feb-27 01:33N 48°57' W 125°09'19 8.3
2017-Feb-26 23:18N 49°09' W 124°48'5 6.8
2017-Feb-26 22:33N 49°14' W 124°49'0 0.0
2017-Feb-26 21:33N 49°14' W 124°49'0 0.0
2017-Feb-26 20:33N 49°14' W 124°49'0 0.0
2017-Feb-26 19:33N 49°14' W 124°49'0 0.0
2017-Feb-26 18:33N 49°14' W 124°49'0 0.0
2017-Feb-26 17:33N 49°14' W 124°49'0 0.0
2017-Feb-26 16:33N 49°14' W 124°49'0 0.0
2017-Feb-26 15:33N 49°14' W 124°49'0 0.0
2017-Feb-26 14:33N 49°14' W 124°49'0 0.0
2017-Feb-26 13:33N 49°14' W 124°49'0 0.0
2017-Feb-26 12:33N 49°14' W 124°49'0 0.0
2017-Feb-26 11:33N 49°14' W 124°49'0 0.0
2017-Feb-26 09:21N 49°14' W 124°49'0 0.0
2017-Feb-26 08:25N 49°14' W 124°49'0 0.0
2017-Feb-26 07:33N 49°14' W 124°49'0 0.0
2017-Feb-26 06:33N 49°14' W 124°49'0 0.0
2017-Feb-26 05:33N 49°14' W 124°49'0 0.0
2017-Feb-26 04:33N 49°14' W 124°49'0 0.0
2017-Feb-26 03:33N 49°14' W 124°49'0 0.0
2017-Feb-26 02:33N 49°14' W 124°49'0 0.0
2017-Feb-26 01:33N 49°14' W 124°49'0 0.0
2017-Feb-26 00:33N 49°14' W 124°49'1 0.7
2017-Feb-25 23:33N 49°14' W 124°49'0 0.0
2017-Feb-25 22:33N 49°14' W 124°49'0 0.0
2017-Feb-25 21:33N 49°14' W 124°49'1 0.7
2017-Feb-25 20:33N 49°14' W 124°49'0 0.0
2017-Feb-25 19:33N 49°14' W 124°49'0 0.0
2017-Feb-25 18:33N 49°14' W 124°49'0 0.0
2017-Feb-25 17:33N 49°14' W 124°49'0 0.0
2017-Feb-25 16:33N 49°14' W 124°49'0 0.0
2017-Feb-25 15:33N 49°14' W 124°49'0 0.0
2017-Feb-25 14:33N 49°14' W 124°49'0 0.0
2017-Feb-25 13:33N 49°14' W 124°49'0 0.0
2017-Feb-25 12:33N 49°14' W 124°49'0 0.0
2017-Feb-25 11:33N 49°14' W 124°49'0 0.0
2017-Feb-25 10:33N 49°14' W 124°49'0 0.0
2017-Feb-25 09:33N 49°14' W 124°49'0 0.0
2017-Feb-25 08:33N 49°14' W 124°49'0 0.0
2017-Feb-25 07:33N 49°14' W 124°49'0 0.0
2017-Feb-25 06:33N 49°14' W 124°49'0 0.0
2017-Feb-25 05:33N 49°14' W 124°49'0 0.0
2017-Feb-25 04:33N 49°14' W 124°49'0 0.0
2017-Feb-25 03:33N 49°14' W 124°49'0 0.0
2017-Feb-25 02:33N 49°14' W 124°49'0 0.0
2017-Feb-25 01:33N 49°14' W 124°49'0 0.0
2017-Feb-25 00:33N 49°14' W 124°49'0 0.0
2017-Feb-24 23:33N 49°14' W 124°49'0 0.0
2017-Feb-24 22:33N 49°14' W 124°49'0 0.0
2017-Feb-24 21:33N 49°14' W 124°49'0 0.0
2017-Feb-24 20:33N 49°14' W 124°49'0 0.0
2017-Feb-23 01:18N 49°14' W 124°49'0 0.0
2017-Feb-23 00:33N 49°14' W 124°49'0 0.0
2017-Feb-22 23:33N 49°14' W 124°49'0 0.0
2017-Feb-22 22:33N 49°14' W 124°49'0 0.0
2017-Feb-22 21:33N 49°14' W 124°49'0 0.0
2017-Feb-22 20:33N 49°14' W 124°49'  
Track history (hours):
 
Tides and Currents Weather Stations Pressure Air Temp Water Temp Dewpoint Dewpoint Depression Visibility Wind Speed Wind Dir Waves Ship Positions

Ocean King

Last reported at 2017-Mar-01 19:29 UTC. Time now 2017-Mar-01 20:16 UTC.
Position N 49°10' W 123°56'.

Length 29 m; draft 4 m.

Type: Fishing. MMSI: 316003514.

Date/timePositionNaut miles runAvg speedWind from/ knotsBaromVisibWave heightAir tempDewpointWater temp
2017-Mar-01 19:29N 49°10' W 123°56'0 0.0
2017-Mar-01 18:28N 49°10' W 123°56'0 0.0
2017-Mar-01 17:33N 49°10' W 123°56'0 0.0
2017-Mar-01 16:31N 49°10' W 123°56'0 0.0
2017-Mar-01 15:33N 49°10' W 123°56'0 0.0
2017-Mar-01 14:33N 49°10' W 123°56'0 0.0
2017-Mar-01 13:33N 49°10' W 123°56'0 0.0
2017-Mar-01 12:31N 49°10' W 123°56'0 0.0
2017-Mar-01 11:31N 49°10' W 123°56'0 0.0
2017-Mar-01 10:27N 49°10' W 123°56'0 0.0
2017-Mar-01 09:31N 49°10' W 123°56'0 0.0
2017-Mar-01 08:32N 49°10' W 123°56'0 0.0
2017-Mar-01 07:33N 49°10' W 123°56'0 0.0
2017-Mar-01 06:30N 49°10' W 123°56'0 0.0
2017-Mar-01 05:31N 49°10' W 123°56'0 0.0
2017-Mar-01 04:33N 49°10' W 123°56'0 0.0
2017-Mar-01 03:33N 49°10' W 123°56'0 0.0
2017-Mar-01 02:33N 49°10' W 123°56'0 0.0
2017-Mar-01 01:28N 49°10' W 123°56'0 0.0
2017-Mar-01 00:32N 49°10' W 123°56'0 0.0
2017-Feb-28 23:33N 49°10' W 123°56'0 0.0
2017-Feb-28 22:31N 49°10' W 123°56'0 0.1
2017-Feb-28 21:33N 49°10' W 123°56'4 3.2
2017-Feb-28 20:22N 49°12' W 123°51'7 8.6
2017-Feb-28 19:32N 49°10' W 123°41'8 8.3
2017-Feb-28 18:33N 49°03' W 123°35'7 6.8
2017-Feb-28 17:32N 48°57' W 123°32'7 7.3
2017-Feb-28 16:33N 48°52' W 123°24'6 6.5
2017-Feb-28 15:33N 48°46' W 123°20'7 7.4
2017-Feb-28 14:33N 48°38' W 123°21'8 8.0
2017-Feb-28 13:33N 48°31' W 123°16'7 7.0
2017-Feb-28 12:33N 48°24' W 123°17'8 8.1
2017-Feb-28 11:33N 48°21' W 123°28'10 9.4
2017-Feb-28 10:33N 48°18' W 123°42'9 9.1
2017-Feb-28 09:33N 48°20' W 123°55'9 8.6
2017-Feb-28 08:33N 48°23' W 124°07'8 8.1
2017-Feb-28 07:33N 48°26' W 124°18'7 7.1
2017-Feb-28 06:33N 48°29' W 124°28'7 6.7
2017-Feb-28 05:33N 48°31' W 124°38'7 6.8
2017-Feb-28 04:33N 48°34' W 124°47'7 7.4
2017-Feb-28 03:33N 48°37' W 124°57'8 7.7
2017-Feb-28 02:33N 48°41' W 125°07'8 8.1
2017-Feb-28 01:33N 48°45' W 125°18'8 8.5
2017-Feb-28 00:33N 48°51' W 125°27'6 6.3
2017-Feb-27 23:33N 48°56' W 125°32'0 0.0
2017-Feb-27 22:33N 48°56' W 125°32'0 0.0
2017-Feb-27 21:33N 48°56' W 125°32'0 0.0
2017-Feb-27 20:33N 48°56' W 125°32'0 0.1
2017-Feb-27 19:33N 48°56' W 125°32'0 0.0
2017-Feb-27 18:34N 48°56' W 125°32'0 0.0
2017-Feb-27 17:33N 48°56' W 125°32'0 0.0
2017-Feb-27 16:33N 48°56' W 125°32'0 0.0
2017-Feb-27 15:34N 48°56' W 125°32'0 0.0
2017-Feb-27 14:33N 48°56' W 125°32'0 0.0
2017-Feb-27 13:33N 48°56' W 125°32'0 0.0
2017-Feb-27 12:33N 48°56' W 125°32'0 0.0
2017-Feb-27 11:33N 48°56' W 125°32'0 0.0
2017-Feb-27 10:33N 48°56' W 125°32'0 0.0
2017-Feb-27 09:33N 48°56' W 125°32'0 0.0
2017-Feb-27 08:33N 48°56' W 125°32'0 0.0
2017-Feb-27 07:34N 48°56' W 125°32'0 0.0
2017-Feb-27 06:33N 48°56' W 125°32'0 0.0
2017-Feb-27 05:33N 48°56' W 125°32'0 0.0
2017-Feb-27 04:33N 48°56' W 125°32'0 0.0
2017-Feb-27 03:34N 48°56' W 125°32'7 6.9
2017-Feb-27 02:33N 48°56' W 125°22'8 8.2
2017-Feb-27 01:33N 48°57' W 125°09'19 8.3
2017-Feb-26 23:18N 49°09' W 124°48'5 6.8
2017-Feb-26 22:33N 49°14' W 124°49'0 0.0
2017-Feb-26 21:33N 49°14' W 124°49'0 0.0
2017-Feb-26 20:33N 49°14' W 124°49'0 0.0
2017-Feb-26 19:33N 49°14' W 124°49'0 0.0
2017-Feb-26 18:33N 49°14' W 124°49'0 0.0
2017-Feb-26 17:33N 49°14' W 124°49'0 0.0
2017-Feb-26 16:33N 49°14' W 124°49'0 0.0
2017-Feb-26 15:33N 49°14' W 124°49'0 0.0
2017-Feb-26 14:33N 49°14' W 124°49'0 0.0
2017-Feb-26 13:33N 49°14' W 124°49'0 0.0
2017-Feb-26 12:33N 49°14' W 124°49'0 0.0
2017-Feb-26 11:33N 49°14' W 124°49'0 0.0
2017-Feb-26 09:21N 49°14' W 124°49'0 0.0
2017-Feb-26 08:25N 49°14' W 124°49'0 0.0
2017-Feb-26 07:33N 49°14' W 124°49'0 0.0
2017-Feb-26 06:33N 49°14' W 124°49'0 0.0
2017-Feb-26 05:33N 49°14' W 124°49'0 0.0
2017-Feb-26 04:33N 49°14' W 124°49'0 0.0
2017-Feb-26 03:33N 49°14' W 124°49'0 0.0
2017-Feb-26 02:33N 49°14' W 124°49'0 0.0
2017-Feb-26 01:33N 49°14' W 124°49'0 0.0
2017-Feb-26 00:33N 49°14' W 124°49'1 0.7
2017-Feb-25 23:33N 49°14' W 124°49'0 0.0
2017-Feb-25 22:33N 49°14' W 124°49'0 0.0
2017-Feb-25 21:33N 49°14' W 124°49'1 0.7
2017-Feb-25 20:33N 49°14' W 124°49'0 0.0
2017-Feb-25 19:33N 49°14' W 124°49'0 0.0
2017-Feb-25 18:33N 49°14' W 124°49'0 0.0
2017-Feb-25 17:33N 49°14' W 124°49'0 0.0
2017-Feb-25 16:33N 49°14' W 124°49'0 0.0
2017-Feb-25 15:33N 49°14' W 124°49'0 0.0
2017-Feb-25 14:33N 49°14' W 124°49'0 0.0
2017-Feb-25 13:33N 49°14' W 124°49'0 0.0
2017-Feb-25 12:33N 49°14' W 124°49'0 0.0
2017-Feb-25 11:33N 49°14' W 124°49'0 0.0
2017-Feb-25 10:33N 49°14' W 124°49'0 0.0
2017-Feb-25 09:33N 49°14' W 124°49'0 0.0
2017-Feb-25 08:33N 49°14' W 124°49'0 0.0
2017-Feb-25 07:33N 49°14' W 124°49'0 0.0
2017-Feb-25 06:33N 49°14' W 124°49'0 0.0
2017-Feb-25 05:33N 49°14' W 124°49'0 0.0
2017-Feb-25 04:33N 49°14' W 124°49'0 0.0
2017-Feb-25 03:33N 49°14' W 124°49'0 0.0
2017-Feb-25 02:33N 49°14' W 124°49'0 0.0
2017-Feb-25 01:33N 49°14' W 124°49'0 0.0
2017-Feb-25 00:33N 49°14' W 124°49'0 0.0
2017-Feb-24 23:33N 49°14' W 124°49'0 0.0
2017-Feb-24 22:33N 49°14' W 124°49'0 0.0
2017-Feb-24 21:33N 49°14' W 124°49'0 0.0
2017-Feb-24 20:33N 49°14' W 124°49'0 0.0
2017-Feb-23 01:18N 49°14' W 124°49'0 0.0
2017-Feb-23 00:33N 49°14' W 124°49'0 0.0
2017-Feb-22 23:33N 49°14' W 124°49'0 0.0
2017-Feb-22 22:33N 49°14' W 124°49'0 0.0
2017-Feb-22 21:33N 49°14' W 124°49'0 0.0
2017-Feb-22 20:33N 49°14' W 124°49'  

Dump ship's entire track history